sensor_id;sensor_type;location;lat;lon;timestamp;pressure;altitude;pressure_sealevel;temperature;humidity
20394;BME280;10356;50.544;9.642;2023-05-16T00:00:34;97994.84;;;11.16;100.00
20394;BME280;10356;50.544;9.642;2023-05-16T00:03:01;98004.03;;;11.11;100.00
20394;BME280;10356;50.544;9.642;2023-05-16T00:05:28;98000.25;;;11.04;100.00
20394;BME280;10356;50.544;9.642;2023-05-16T00:07:54;97991.03;;;10.99;100.00
20394;BME280;10356;50.544;9.642;2023-05-16T00:10:21;97993.47;;;10.91;100.00
20394;BME280;10356;50.544;9.642;2023-05-16T00:12:49;97994.66;;;10.87;100.00
20394;BME280;10356;50.544;9.642;2023-05-16T00:15:16;97992.31;;;10.84;100.00
20394;BME280;10356;50.544;9.642;2023-05-16T00:17:44;97989.72;;;10.84;100.00
20394;BME280;10356;50.544;9.642;2023-05-16T00:20:11;97983.53;;;10.85;100.00
20394;BME280;10356;50.544;9.642;2023-05-16T00:22:39;97982.28;;;10.80;100.00
20394;BME280;10356;50.544;9.642;2023-05-16T00:25:06;97993.44;;;10.71;100.00
20394;BME280;10356;50.544;9.642;2023-05-16T00:27:34;97987.66;;;10.67;100.00
20394;BME280;10356;50.544;9.642;2023-05-16T00:30:03;97985.94;;;10.57;100.00
20394;BME280;10356;50.544;9.642;2023-05-16T00:32:30;97984.91;;;10.48;100.00
20394;BME280;10356;50.544;9.642;2023-05-16T00:34:56;97980.72;;;10.36;100.00
20394;BME280;10356;50.544;9.642;2023-05-16T00:37:23;97980.22;;;10.31;100.00
20394;BME280;10356;50.544;9.642;2023-05-16T00:39:49;97976.78;;;10.31;100.00
20394;BME280;10356;50.544;9.642;2023-05-16T00:42:18;97978.47;;;10.32;100.00
20394;BME280;10356;50.544;9.642;2023-05-16T00:44:44;97984.88;;;10.28;100.00
20394;BME280;10356;50.544;9.642;2023-05-16T00:47:12;97983.34;;;10.25;100.00
20394;BME280;10356;50.544;9.642;2023-05-16T00:49:39;97989.88;;;10.20;100.00
20394;BME280;10356;50.544;9.642;2023-05-16T00:52:05;97987.34;;;10.18;100.00
20394;BME280;10356;50.544;9.642;2023-05-16T00:54:32;97994.03;;;10.11;100.00
20394;BME280;10356;50.544;9.642;2023-05-16T00:56:59;97991.03;;;10.04;100.00
20394;BME280;10356;50.544;9.642;2023-05-16T00:59:26;97988.34;;;9.95;100.00
20394;BME280;10356;50.544;9.642;2023-05-16T01:01:52;97987.63;;;9.93;100.00
20394;BME280;10356;50.544;9.642;2023-05-16T01:04:21;97990.03;;;9.85;100.00
20394;BME280;10356;50.544;9.642;2023-05-16T01:06:48;97991.34;;;9.79;100.00
20394;BME280;10356;50.544;9.642;2023-05-16T01:09:14;97990.97;;;9.73;100.00
20394;BME280;10356;50.544;9.642;2023-05-16T01:11:46;97994.19;;;9.65;100.00
20394;BME280;10356;50.544;9.642;2023-05-16T01:14:18;98001.13;;;9.54;100.00
20394;BME280;10356;50.544;9.642;2023-05-16T01:16:51;97997.38;;;9.47;100.00
20394;BME280;10356;50.544;9.642;2023-05-16T01:19:31;97997.97;;;9.39;100.00
20394;BME280;10356;50.544;9.642;2023-05-16T01:22:04;97997.59;;;9.32;100.00
20394;BME280;10356;50.544;9.642;2023-05-16T01:24:33;98001.00;;;9.22;100.00
20394;BME280;10356;50.544;9.642;2023-05-16T01:27:03;97997.56;;;9.21;100.00
20394;BME280;10356;50.544;9.642;2023-05-16T01:29:30;98002.06;;;9.19;100.00
20394;BME280;10356;50.544;9.642;2023-05-16T01:31:56;97995.22;;;9.18;100.00
20394;BME280;10356;50.544;9.642;2023-05-16T01:34:23;97999.00;;;9.14;100.00
20394;BME280;10356;50.544;9.642;2023-05-16T01:36:53;98005.25;;;9.12;100.00
20394;BME280;10356;50.544;9.642;2023-05-16T01:39:30;98001.47;;;9.05;100.00
20394;BME280;10356;50.544;9.642;2023-05-16T01:42:03;98013.84;;;9.01;100.00
20394;BME280;10356;50.544;9.642;2023-05-16T01:44:34;98002.88;;;8.98;100.00
20394;BME280;10356;50.544;9.642;2023-05-16T01:47:04;98011.00;;;8.93;100.00
20394;BME280;10356;50.544;9.642;2023-05-16T01:49:34;98006.03;;;8.90;100.00
20394;BME280;10356;50.544;9.642;2023-05-16T01:52:06;98004.63;;;8.86;100.00
20394;BME280;10356;50.544;9.642;2023-05-16T01:54:36;98002.22;;;8.83;100.00
20394;BME280;10356;50.544;9.642;2023-05-16T01:57:05;98010.03;;;8.83;100.00
20394;BME280;10356;50.544;9.642;2023-05-16T01:59:34;98013.78;;;8.79;100.00
20394;BME280;10356;50.544;9.642;2023-05-16T02:02:02;98017.34;;;8.78;100.00
20394;BME280;10356;50.544;9.642;2023-05-16T02:04:29;98016.72;;;8.75;100.00
20394;BME280;10356;50.544;9.642;2023-05-16T02:06:55;98023.78;;;8.73;100.00
20394;BME280;10356;50.544;9.642;2023-05-16T02:09:24;98021.78;;;8.65;100.00
20394;BME280;10356;50.544;9.642;2023-05-16T02:11:51;98022.22;;;8.59;100.00
20394;BME280;10356;50.544;9.642;2023-05-16T02:14:19;98017.03;;;8.59;100.00
20394;BME280;10356;50.544;9.642;2023-05-16T02:16:46;98019.75;;;8.58;100.00
20394;BME280;10356;50.544;9.642;2023-05-16T02:19:13;98023.16;;;8.58;100.00
20394;BME280;10356;50.544;9.642;2023-05-16T02:21:39;98027.66;;;8.56;100.00
20394;BME280;10356;50.544;9.642;2023-05-16T02:24:06;98026.94;;;8.54;100.00
20394;BME280;10356;50.544;9.642;2023-05-16T02:26:32;98026.66;;;8.46;100.00
20394;BME280;10356;50.544;9.642;2023-05-16T02:28:59;98025.22;;;8.42;100.00
20394;BME280;10356;50.544;9.642;2023-05-16T02:31:28;98031.47;;;8.39;100.00
20394;BME280;10356;50.544;9.642;2023-05-16T02:33:54;98022.34;;;8.34;100.00
20394;BME280;10356;50.544;9.642;2023-05-16T02:36:21;98037.94;;;8.34;100.00
20394;BME280;10356;50.544;9.642;2023-05-16T02:38:47;98031.50;;;8.27;100.00
20394;BME280;10356;50.544;9.642;2023-05-16T02:41:14;98041.25;;;8.23;100.00
20394;BME280;10356;50.544;9.642;2023-05-16T02:43:40;98037.94;;;8.21;100.00
20394;BME280;10356;50.544;9.642;2023-05-16T02:46:19;98031.91;;;8.21;100.00
20394;BME280;10356;50.544;9.642;2023-05-16T02:48:47;98042.28;;;8.21;100.00
20394;BME280;10356;50.544;9.642;2023-05-16T02:51:13;98040.66;;;8.20;100.00
20394;BME280;10356;50.544;9.642;2023-05-16T02:53:40;98037.69;;;8.24;100.00
20394;BME280;10356;50.544;9.642;2023-05-16T02:56:06;98047.06;;;8.27;100.00
20394;BME280;10356;50.544;9.642;2023-05-16T02:58:34;98051.00;;;8.32;100.00
20394;BME280;10356;50.544;9.642;2023-05-16T03:01:00;98055.97;;;8.35;100.00
20394;BME280;10356;50.544;9.642;2023-05-16T03:03:28;98055.22;;;8.46;100.00
20394;BME280;10356;50.544;9.642;2023-05-16T03:05:56;98060.69;;;8.54;100.00
20394;BME280;10356;50.544;9.642;2023-05-16T03:08:22;98051.50;;;8.61;100.00
20394;BME280;10356;50.544;9.642;2023-05-16T03:10:49;98053.66;;;8.67;100.00
20394;BME280;10356;50.544;9.642;2023-05-16T03:13:15;98055.81;;;8.73;100.00
20394;BME280;10356;50.544;9.642;2023-05-16T03:15:42;98058.91;;;8.78;100.00
20394;BME280;10356;50.544;9.642;2023-05-16T03:18:09;98049.69;;;8.85;100.00
20394;BME280;10356;50.544;9.642;2023-05-16T03:20:36;98045.72;;;8.92;100.00
20394;BME280;10356;50.544;9.642;2023-05-16T03:23:04;98047.16;;;8.96;100.00
20394;BME280;10356;50.544;9.642;2023-05-16T03:25:32;98051.06;;;9.02;100.00
20394;BME280;10356;50.544;9.642;2023-05-16T03:27:58;98045.66;;;9.05;100.00
20394;BME280;10356;50.544;9.642;2023-05-16T03:30:26;98053.91;;;9.10;100.00
20394;BME280;10356;50.544;9.642;2023-05-16T03:32:52;98058.06;;;9.12;100.00
20394;BME280;10356;50.544;9.642;2023-05-16T03:35:18;98059.50;;;9.16;100.00
20394;BME280;10356;50.544;9.642;2023-05-16T03:37:45;98056.56;;;9.21;100.00
20394;BME280;10356;50.544;9.642;2023-05-16T03:40:13;98059.75;;;9.24;100.00
20394;BME280;10356;50.544;9.642;2023-05-16T03:42:39;98056.91;;;9.27;100.00
20394;BME280;10356;50.544;9.642;2023-05-16T03:45:06;98060.22;;;9.29;100.00
20394;BME280;10356;50.544;9.642;2023-05-16T03:47:33;98062.00;;;9.29;100.00
20394;BME280;10356;50.544;9.642;2023-05-16T03:50:00;98061.63;;;9.33;100.00
20394;BME280;10356;50.544;9.642;2023-05-16T03:52:27;98059.75;;;9.36;100.00
20394;BME280;10356;50.544;9.642;2023-05-16T03:54:53;98064.16;;;9.35;100.00
20394;BME280;10356;50.544;9.642;2023-05-16T03:57:21;98063.06;;;9.38;100.00
20394;BME280;10356;50.544;9.642;2023-05-16T03:59:48;98061.19;;;9.40;100.00
20394;BME280;10356;50.544;9.642;2023-05-16T04:02:14;98074.81;;;9.43;100.00
20394;BME280;10356;50.544;9.642;2023-05-16T04:04:41;98067.81;;;9.44;100.00
20394;BME280;10356;50.544;9.642;2023-05-16T04:07:07;98073.00;;;9.44;100.00
20394;BME280;10356;50.544;9.642;2023-05-16T04:09:33;98072.66;;;9.48;100.00
20394;BME280;10356;50.544;9.642;2023-05-16T04:12:00;98077.16;;;9.46;100.00
20394;BME280;10356;50.544;9.642;2023-05-16T04:14:28;98074.91;;;9.42;100.00
20394;BME280;10356;50.544;9.642;2023-05-16T04:16:55;98078.22;;;9.44;100.00
20394;BME280;10356;50.544;9.642;2023-05-16T04:19:21;98082.22;;;9.48;100.00
20394;BME280;10356;50.544;9.642;2023-05-16T04:21:48;98088.38;;;9.58;100.00
20394;BME280;10356;50.544;9.642;2023-05-16T04:24:14;98090.44;;;9.65;100.00
20394;BME280;10356;50.544;9.642;2023-05-16T04:26:41;98085.47;;;9.73;100.00
20394;BME280;10356;50.544;9.642;2023-05-16T04:29:07;98087.69;;;9.78;100.00
20394;BME280;10356;50.544;9.642;2023-05-16T04:31:35;98089.84;;;9.84;100.00
20394;BME280;10356;50.544;9.642;2023-05-16T04:34:02;98087.00;;;9.87;100.00
20394;BME280;10356;50.544;9.642;2023-05-16T04:36:28;98093.88;;;9.99;100.00
20394;BME280;10356;50.544;9.642;2023-05-16T04:38:55;98087.69;;;10.00;100.00
20394;BME280;10356;50.544;9.642;2023-05-16T04:41:22;98087.13;;;9.96;100.00
20394;BME280;10356;50.544;9.642;2023-05-16T04:43:49;98086.06;;;9.99;100.00
20394;BME280;10356;50.544;9.642;2023-05-16T04:46:16;98092.69;;;10.03;100.00
20394;BME280;10356;50.544;9.642;2023-05-16T04:48:44;98094.22;;;10.05;100.00
20394;BME280;10356;50.544;9.642;2023-05-16T04:51:10;98107.81;;;10.09;100.00
20394;BME280;10356;50.544;9.642;2023-05-16T04:53:37;98105.84;;;10.12;100.00
20394;BME280;10356;50.544;9.642;2023-05-16T04:56:04;98115.28;;;10.02;100.00
20394;BME280;10356;50.544;9.642;2023-05-16T04:58:30;98122.28;;;10.13;100.00
20394;BME280;10356;50.544;9.642;2023-05-16T05:00:57;98119.44;;;10.16;100.00
20394;BME280;10356;50.544;9.642;2023-05-16T05:03:23;98123.00;;;10.15;100.00
20394;BME280;10356;50.544;9.642;2023-05-16T05:05:51;98127.16;;;10.18;100.00
20394;BME280;10356;50.544;9.642;2023-05-16T05:08:18;98126.06;;;10.20;100.00
20394;BME280;10356;50.544;9.642;2023-05-16T05:10:45;98128.44;;;10.23;100.00
20394;BME280;10356;50.544;9.642;2023-05-16T05:13:11;98129.16;;;10.25;100.00
20394;BME280;10356;50.544;9.642;2023-05-16T05:15:38;98129.63;;;10.30;100.00
20394;BME280;10356;50.544;9.642;2023-05-16T05:18:04;98131.50;;;10.28;100.00
20394;BME280;10356;50.544;9.642;2023-05-16T05:20:31;98125.34;;;10.29;100.00
20394;BME280;10356;50.544;9.642;2023-05-16T05:22:59;98132.94;;;10.32;100.00
20394;BME280;10356;50.544;9.642;2023-05-16T05:25:25;98135.78;;;10.29;100.00
20394;BME280;10356;50.544;9.642;2023-05-16T05:27:52;98136.47;;;10.20;100.00
20394;BME280;10356;50.544;9.642;2023-05-16T05:30:18;98146.66;;;10.23;100.00
20394;BME280;10356;50.544;9.642;2023-05-16T05:32:45;98140.28;;;10.27;100.00
20394;BME280;10356;50.544;9.642;2023-05-16T05:35:11;98151.41;;;10.29;100.00
20394;BME280;10356;50.544;9.642;2023-05-16T05:37:38;98148.09;;;10.27;100.00
20394;BME280;10356;50.544;9.642;2023-05-16T05:40:07;98146.69;;;10.34;100.00
20394;BME280;10356;50.544;9.642;2023-05-16T05:42:33;98151.41;;;10.40;100.00
20394;BME280;10356;50.544;9.642;2023-05-16T05:45:00;98142.63;;;10.41;100.00
20394;BME280;10356;50.544;9.642;2023-05-16T05:47:26;98147.13;;;10.39;100.00
20394;BME280;10356;50.544;9.642;2023-05-16T05:49:53;98150.22;;;10.44;100.00
20394;BME280;10356;50.544;9.642;2023-05-16T05:52:20;98148.31;;;10.35;100.00
20394;BME280;10356;50.544;9.642;2023-05-16T05:54:46;98147.47;;;10.35;100.00
20394;BME280;10356;50.544;9.642;2023-05-16T05:57:14;98154.50;;;10.34;100.00
20394;BME280;10356;50.544;9.642;2023-05-16T05:59:40;98156.81;;;10.26;100.00
20394;BME280;10356;50.544;9.642;2023-05-16T06:02:07;98156.81;;;10.26;100.00
20394;BME280;10356;50.544;9.642;2023-05-16T06:04:33;98163.84;;;10.26;100.00
20394;BME280;10356;50.544;9.642;2023-05-16T06:07:00;98164.53;;;10.28;100.00
20394;BME280;10356;50.544;9.642;2023-05-16T06:09:27;98181.13;;;10.38;100.00
20394;BME280;10356;50.544;9.642;2023-05-16T06:11:53;98173.91;;;10.30;100.00
20394;BME280;10356;50.544;9.642;2023-05-16T06:14:21;98172.47;;;10.37;100.00
20394;BME280;10356;50.544;9.642;2023-05-16T06:16:48;98176.84;;;10.26;100.00
20394;BME280;10356;50.544;9.642;2023-05-16T06:19:14;98186.44;;;10.25;100.00
20394;BME280;10356;50.544;9.642;2023-05-16T06:21:41;98186.56;;;10.24;100.00
20394;BME280;10356;50.544;9.642;2023-05-16T06:24:08;98186.19;;;10.28;100.00
20394;BME280;10356;50.544;9.642;2023-05-16T06:26:35;98187.97;;;10.28;100.00
20394;BME280;10356;50.544;9.642;2023-05-16T06:29:02;98196.59;;;10.28;100.00
20394;BME280;10356;50.544;9.642;2023-05-16T06:31:29;98197.91;;;10.34;100.00
20394;BME280;10356;50.544;9.642;2023-05-16T06:33:56;98203.00;;;10.35;100.00
20394;BME280;10356;50.544;9.642;2023-05-16T06:36:23;98210.22;;;10.43;100.00
20394;BME280;10356;50.544;9.642;2023-05-16T06:38:49;98210.22;;;10.43;100.00
20394;BME280;10356;50.544;9.642;2023-05-16T06:41:16;98210.56;;;10.49;100.00
20394;BME280;10356;50.544;9.642;2023-05-16T06:43:42;98209.97;;;10.57;100.00
20394;BME280;10356;50.544;9.642;2023-05-16T06:46:09;98209.63;;;10.72;100.00
20394;BME280;10356;50.544;9.642;2023-05-16T06:48:36;98215.53;;;10.74;100.00
20394;BME280;10356;50.544;9.642;2023-05-16T06:51:03;98210.34;;;10.74;100.00
20394;BME280;10356;50.544;9.642;2023-05-16T06:53:30;98211.75;;;10.78;100.00
20394;BME280;10356;50.544;9.642;2023-05-16T06:55:56;98215.16;;;10.79;100.00
20394;BME280;10356;50.544;9.642;2023-05-16T06:58:23;98222.66;;;10.72;100.00
20394;BME280;10356;50.544;9.642;2023-05-16T07:00:49;98229.75;;;10.59;100.00
20394;BME280;10356;50.544;9.642;2023-05-16T07:03:16;98231.66;;;10.57;100.00
20394;BME280;10356;50.544;9.642;2023-05-16T07:05:44;98239.00;;;10.63;100.00
20394;BME280;10356;50.544;9.642;2023-05-16T07:08:10;98241.38;;;10.66;100.00
20394;BME280;10356;50.544;9.642;2023-05-16T07:10:37;98240.78;;;10.74;100.00
20394;BME280;10356;50.544;9.642;2023-05-16T07:13:03;98245.38;;;10.81;100.00
20394;BME280;10356;50.544;9.642;2023-05-16T07:15:30;98247.75;;;10.84;100.00
20394;BME280;10356;50.544;9.642;2023-05-16T07:17:56;98233.97;;;11.05;100.00
20394;BME280;10356;50.544;9.642;2023-05-16T07:20:23;98247.81;;;11.05;100.00
20394;BME280;10356;50.544;9.642;2023-05-16T07:22:51;98242.25;;;11.10;100.00
20394;BME280;10356;50.544;9.642;2023-05-16T07:25:17;98238.31;;;11.15;100.00
20394;BME280;10356;50.544;9.642;2023-05-16T07:27:44;98250.28;;;11.18;100.00
20394;BME280;10356;50.544;9.642;2023-05-16T07:30:12;98243.53;;;11.15;100.00
20394;BME280;10356;50.544;9.642;2023-05-16T07:32:39;98253.03;;;11.16;100.00
20394;BME280;10356;50.544;9.642;2023-05-16T07:35:06;98252.22;;;11.05;100.00
20394;BME280;10356;50.544;9.642;2023-05-16T07:37:33;98259.34;;;10.91;100.00
20394;BME280;10356;50.544;9.642;2023-05-16T07:40:02;98256.97;;;10.99;100.00
20394;BME280;10356;50.544;9.642;2023-05-16T07:42:29;98265.13;;;10.95;100.00
20394;BME280;10356;50.544;9.642;2023-05-16T07:44:56;98275.34;;;10.98;100.00
20394;BME280;10356;50.544;9.642;2023-05-16T07:47:22;98267.03;;;11.04;100.00
20394;BME280;10356;50.544;9.642;2023-05-16T07:49:49;98270.22;;;11.08;100.00
20394;BME280;10356;50.544;9.642;2023-05-16T07:52:15;98276.03;;;11.00;100.00
20394;BME280;10356;50.544;9.642;2023-05-16T07:54:42;98275.47;;;10.74;100.00
20394;BME280;10356;50.544;9.642;2023-05-16T07:57:10;98279.97;;;10.50;100.00
20394;BME280;10356;50.544;9.642;2023-05-16T07:59:36;98290.75;;;10.46;100.00
20394;BME280;10356;50.544;9.642;2023-05-16T08:02:03;98295.38;;;10.53;100.00
20394;BME280;10356;50.544;9.642;2023-05-16T08:04:29;98296.88;;;10.45;100.00
20394;BME280;10356;50.544;9.642;2023-05-16T08:06:56;98295.63;;;10.50;100.00
20394;BME280;10356;50.544;9.642;2023-05-16T08:09:22;98307.22;;;10.46;100.00
20394;BME280;10356;50.544;9.642;2023-05-16T08:11:49;98307.19;;;10.35;100.00
20394;BME280;10356;50.544;9.642;2023-05-16T08:14:17;98316.66;;;10.47;100.00
20394;BME280;10356;50.544;9.642;2023-05-16T08:16:43;98312.16;;;10.38;100.00
20394;BME280;10356;50.544;9.642;2023-05-16T08:19:10;98317.34;;;10.27;100.00
20394;BME280;10356;50.544;9.642;2023-05-16T08:21:37;98319.09;;;10.27;100.00
20394;BME280;10356;50.544;9.642;2023-05-16T08:24:04;98321.59;;;10.28;100.00
20394;BME280;10356;50.544;9.642;2023-05-16T08:26:31;98329.06;;;10.33;100.00
20394;BME280;10356;50.544;9.642;2023-05-16T08:28:57;98324.94;;;10.30;99.76
20394;BME280;10356;50.544;9.642;2023-05-16T08:31:25;98327.50;;;10.19;100.00
20394;BME280;10356;50.544;9.642;2023-05-16T08:33:52;98331.88;;;10.19;100.00
20394;BME280;10356;50.544;9.642;2023-05-16T08:36:18;98341.44;;;10.18;100.00
20394;BME280;10356;50.544;9.642;2023-05-16T08:38:45;98338.25;;;10.14;100.00
20394;BME280;10356;50.544;9.642;2023-05-16T08:41:11;98345.22;;;10.14;100.00
20394;BME280;10356;50.544;9.642;2023-05-16T08:43:38;98354.00;;;10.13;100.00
20394;BME280;10356;50.544;9.642;2023-05-16T08:46:06;98348.56;;;10.16;99.85
20394;BME280;10356;50.544;9.642;2023-05-16T08:48:35;98354.38;;;10.20;97.75
20394;BME280;10356;50.544;9.642;2023-05-16T08:51:02;98349.53;;;10.26;98.10
20394;BME280;10356;50.544;9.642;2023-05-16T08:53:31;98355.44;;;10.17;96.75
20394;BME280;10356;50.544;9.642;2023-05-16T08:56:04;98357.00;;;10.20;95.79
20394;BME280;10356;50.544;9.642;2023-05-16T08:58:31;98357.31;;;10.15;93.27
20394;BME280;10356;50.544;9.642;2023-05-16T09:00:58;98358.75;;;10.19;94.10
20394;BME280;10356;50.544;9.642;2023-05-16T09:03:27;98364.94;;;10.05;94.94
20394;BME280;10356;50.544;9.642;2023-05-16T09:05:55;98366.31;;;10.11;94.33
20394;BME280;10356;50.544;9.642;2023-05-16T09:08:22;98355.47;;;10.04;94.35
20394;BME280;10356;50.544;9.642;2023-05-16T09:10:48;98355.94;;;10.33;94.81
20394;BME280;10356;50.544;9.642;2023-05-16T09:13:15;98355.03;;;10.34;92.39
20394;BME280;10356;50.544;9.642;2023-05-16T09:15:42;98348.06;;;10.57;93.00
20394;BME280;10356;50.544;9.642;2023-05-16T09:18:11;98342.88;;;10.79;90.18
20394;BME280;10356;50.544;9.642;2023-05-16T09:20:42;98357.53;;;10.69;89.79
20394;BME280;10356;50.544;9.642;2023-05-16T09:23:12;98343.84;;;11.00;87.98
20394;BME280;10356;50.544;9.642;2023-05-16T09:25:39;98340.16;;;11.25;86.20
20394;BME280;10356;50.544;9.642;2023-05-16T09:28:09;98343.22;;;11.30;83.06
20394;BME280;10356;50.544;9.642;2023-05-16T09:30:36;98342.19;;;11.64;81.29
20394;BME280;10356;50.544;9.642;2023-05-16T09:33:05;98344.97;;;11.94;82.55
20394;BME280;10356;50.544;9.642;2023-05-16T09:35:31;98348.34;;;11.85;78.39
20394;BME280;10356;50.544;9.642;2023-05-16T09:37:58;98354.75;;;12.33;79.17
20394;BME280;10356;50.544;9.642;2023-05-16T09:40:26;98352.53;;;12.29;76.18
20394;BME280;10356;50.544;9.642;2023-05-16T09:43:01;98353.47;;;12.48;76.33
20394;BME280;10356;50.544;9.642;2023-05-16T09:45:29;98349.50;;;12.75;72.93
20394;BME280;10356;50.544;9.642;2023-05-16T09:48:00;98349.09;;;13.30;77.16
20394;BME280;10356;50.544;9.642;2023-05-16T09:50:27;98345.78;;;13.28;70.38
20394;BME280;10356;50.544;9.642;2023-05-16T09:52:54;98360.63;;;13.18;69.97
20394;BME280;10356;50.544;9.642;2023-05-16T09:55:22;98352.59;;;13.10;70.79
20394;BME280;10356;50.544;9.642;2023-05-16T09:57:49;98347.44;;;13.29;71.92
20394;BME280;10356;50.544;9.642;2023-05-16T10:00:17;98350.25;;;13.46;67.42
20394;BME280;10356;50.544;9.642;2023-05-16T10:02:43;98349.88;;;13.80;68.25
20394;BME280;10356;50.544;9.642;2023-05-16T10:05:11;98351.38;;;13.73;63.95
20394;BME280;10356;50.544;9.642;2023-05-16T10:07:38;98350.03;;;13.97;66.22
20394;BME280;10356;50.544;9.642;2023-05-16T10:10:06;98352.91;;;13.94;67.60
20394;BME280;10356;50.544;9.642;2023-05-16T10:12:34;98354.44;;;13.97;65.18
20394;BME280;10356;50.544;9.642;2023-05-16T10:15:04;98357.19;;;14.14;65.17
20394;BME280;10356;50.544;9.642;2023-05-16T10:17:33;98351.28;;;14.22;62.77
20394;BME280;10356;50.544;9.642;2023-05-16T10:20:00;98353.56;;;13.58;63.97
20394;BME280;10356;50.544;9.642;2023-05-16T10:22:32;98360.78;;;13.85;61.85
20394;BME280;10356;50.544;9.642;2023-05-16T10:25:05;98366.84;;;14.04;61.84
20394;BME280;10356;50.544;9.642;2023-05-16T10:27:34;98361.59;;;14.04;60.01
20394;BME280;10356;50.544;9.642;2023-05-16T10:30:02;98360.28;;;14.29;60.55
20394;BME280;10356;50.544;9.642;2023-05-16T10:32:30;98358.06;;;14.44;60.90
20394;BME280;10356;50.544;9.642;2023-05-16T10:34:57;98360.78;;;13.75;62.46
20394;BME280;10356;50.544;9.642;2023-05-16T10:37:28;98350.00;;;13.88;65.00
20394;BME280;10356;50.544;9.642;2023-05-16T10:39:55;98354.16;;;13.90;64.21
20394;BME280;10356;50.544;9.642;2023-05-16T10:42:22;98356.94;;;14.17;60.80
20394;BME280;10356;50.544;9.642;2023-05-16T10:44:52;98367.13;;;14.01;61.83
20394;BME280;10356;50.544;9.642;2023-05-16T10:47:20;98355.09;;;13.70;63.26
20394;BME280;10356;50.544;9.642;2023-05-16T10:49:47;98361.88;;;14.20;61.99
20394;BME280;10356;50.544;9.642;2023-05-16T10:52:14;98358.16;;;13.75;61.00
20394;BME280;10356;50.544;9.642;2023-05-16T10:54:45;98368.66;;;13.35;59.88
20394;BME280;10356;50.544;9.642;2023-05-16T10:57:16;98368.16;;;13.51;62.17
20394;BME280;10356;50.544;9.642;2023-05-16T10:59:46;98358.84;;;13.77;60.54
20394;BME280;10356;50.544;9.642;2023-05-16T11:02:26;98360.47;;;14.74;56.85
20394;BME280;10356;50.544;9.642;2023-05-16T11:04:54;98366.00;;;14.71;57.82
20394;BME280;10356;50.544;9.642;2023-05-16T11:07:22;98363.53;;;14.60;53.61
20394;BME280;10356;50.544;9.642;2023-05-16T11:10:05;98364.69;;;14.28;53.74
20394;BME280;10356;50.544;9.642;2023-05-16T11:12:42;98355.25;;;14.55;55.75
20394;BME280;10356;50.544;9.642;2023-05-16T11:15:21;98356.00;;;14.38;54.62
20394;BME280;10356;50.544;9.642;2023-05-16T11:17:50;98352.59;;;14.74;54.87
20394;BME280;10356;50.544;9.642;2023-05-16T11:20:29;98365.66;;;15.30;54.13
20394;BME280;10356;50.544;9.642;2023-05-16T11:23:18;98362.88;;;15.04;52.57
20394;BME280;10356;50.544;9.642;2023-05-16T11:25:47;98362.56;;;15.07;51.21
20394;BME280;10356;50.544;9.642;2023-05-16T11:28:16;98387.63;;;14.92;51.42
20394;BME280;10356;50.544;9.642;2023-05-16T11:30:44;98357.09;;;14.91;52.04
20394;BME280;10356;50.544;9.642;2023-05-16T11:33:13;98348.09;;;16.02;50.90
20394;BME280;10356;50.544;9.642;2023-05-16T11:35:41;98352.28;;;16.13;50.94
20394;BME280;10356;50.544;9.642;2023-05-16T11:38:11;98352.59;;;16.27;47.32
20394;BME280;10356;50.544;9.642;2023-05-16T11:40:41;98355.50;;;16.59;47.81
20394;BME280;10356;50.544;9.642;2023-05-16T11:43:08;98355.66;;;16.40;49.50
20394;BME280;10356;50.544;9.642;2023-05-16T11:45:35;98360.84;;;16.32;50.00
20394;BME280;10356;50.544;9.642;2023-05-16T11:48:02;98366.88;;;16.25;49.69
20394;BME280;10356;50.544;9.642;2023-05-16T11:50:33;98363.66;;;15.95;48.30
20394;BME280;10356;50.544;9.642;2023-05-16T11:53:00;98375.66;;;15.98;48.17
20394;BME280;10356;50.544;9.642;2023-05-16T11:55:27;98372.50;;;16.12;47.22
20394;BME280;10356;50.544;9.642;2023-05-16T11:57:56;98370.03;;;16.11;49.25
20394;BME280;10356;50.544;9.642;2023-05-16T12:00:24;98374.53;;;16.01;46.52
20394;BME280;10356;50.544;9.642;2023-05-16T12:02:52;98380.63;;;16.01;44.99
20394;BME280;10356;50.544;9.642;2023-05-16T12:05:20;98373.69;;;15.82;47.43
20394;BME280;10356;50.544;9.642;2023-05-16T12:07:50;98378.00;;;16.19;47.60
20394;BME280;10356;50.544;9.642;2023-05-16T12:10:19;98382.19;;;15.94;48.00
20394;BME280;10356;50.544;9.642;2023-05-16T12:12:47;98386.41;;;16.22;48.61
20394;BME280;10356;50.544;9.642;2023-05-16T12:15:16;98381.72;;;16.69;45.91
20394;BME280;10356;50.544;9.642;2023-05-16T12:17:42;98376.91;;;16.47;43.09
20394;BME280;10356;50.544;9.642;2023-05-16T12:20:10;98377.69;;;16.39;46.18
20394;BME280;10356;50.544;9.642;2023-05-16T12:22:38;98379.34;;;16.05;45.06
20394;BME280;10356;50.544;9.642;2023-05-16T12:25:21;98378.31;;;16.16;44.83
20394;BME280;10356;50.544;9.642;2023-05-16T12:27:48;98382.94;;;15.86;46.58
20394;BME280;10356;50.544;9.642;2023-05-16T12:30:15;98370.78;;;15.85;46.18
20394;BME280;10356;50.544;9.642;2023-05-16T12:32:42;98371.38;;;16.15;46.14
20394;BME280;10356;50.544;9.642;2023-05-16T12:35:09;98371.22;;;16.34;45.64
20394;BME280;10356;50.544;9.642;2023-05-16T12:37:37;98379.28;;;15.97;45.08
20394;BME280;10356;50.544;9.642;2023-05-16T12:40:05;98375.16;;;16.30;45.06
20394;BME280;10356;50.544;9.642;2023-05-16T12:42:33;98380.75;;;16.96;44.13
20394;BME280;10356;50.544;9.642;2023-05-16T12:44:59;98374.81;;;16.33;43.44
20394;BME280;10356;50.544;9.642;2023-05-16T12:47:34;98383.22;;;16.36;44.19
20394;BME280;10356;50.544;9.642;2023-05-16T12:50:01;98371.69;;;16.12;42.73
20394;BME280;10356;50.544;9.642;2023-05-16T12:52:28;98369.56;;;16.94;43.29
20394;BME280;10356;50.544;9.642;2023-05-16T12:54:55;98377.63;;;16.49;42.63
20394;BME280;10356;50.544;9.642;2023-05-16T12:57:21;98375.28;;;16.11;39.27